sensor_id;sensor_type;location;lat;lon;timestamp;P1;durP1;ratioP1;P2;durP2;ratioP2
30466;SDS011;17258;52.560;13.046;2022-09-12T00:02:45;1.13;;;1.05;;
30466;SDS011;17258;52.560;13.046;2022-09-12T00:12:46;1.30;;;1.20;;
30466;SDS011;17258;52.560;13.046;2022-09-12T00:22:46;1.10;;;1.00;;
30466;SDS011;17258;52.560;13.046;2022-09-12T00:32:47;1.50;;;1.20;;
30466;SDS011;17258;52.560;13.046;2022-09-12T00:42:49;0.88;;;0.88;;
30466;SDS011;17258;52.560;13.046;2022-09-12T00:53:03;1.08;;;1.05;;
30466;SDS011;17258;52.560;13.046;2022-09-12T01:03:08;0.90;;;0.90;;
30466;SDS011;17258;52.560;13.046;2022-09-12T01:13:12;2.15;;;1.13;;
30466;SDS011;17258;52.560;13.046;2022-09-12T01:23:26;1.20;;;1.10;;
30466;SDS011;17258;52.560;13.046;2022-09-12T01:34:44;0.85;;;0.85;;
30466;SDS011;17258;52.560;13.046;2022-09-12T01:45:17;1.23;;;1.13;;
30466;SDS011;17258;52.560;13.046;2022-09-12T02:05:30;1.02;;;0.85;;
30466;SDS011;17258;52.560;13.046;2022-09-12T02:15:37;1.10;;;1.10;;
30466;SDS011;17258;52.560;13.046;2022-09-12T02:25:51;0.75;;;0.75;;
30466;SDS011;17258;52.560;13.046;2022-09-12T02:36:09;0.90;;;0.90;;
30466;SDS011;17258;52.560;13.046;2022-09-12T02:46:27;1.53;;;1.07;;
30466;SDS011;17258;52.560;13.046;2022-09-12T02:56:42;0.75;;;0.70;;
30466;SDS011;17258;52.560;13.046;2022-09-12T03:06:50;0.60;;;0.60;;
30466;SDS011;17258;52.560;13.046;2022-09-12T03:17:06;0.70;;;0.70;;
30466;SDS011;17258;52.560;13.046;2022-09-12T03:27:34;0.60;;;0.60;;
30466;SDS011;17258;52.560;13.046;2022-09-12T03:37:38;0.90;;;0.90;;
30466;SDS011;17258;52.560;13.046;2022-09-12T03:47:39;0.93;;;0.93;;
30466;SDS011;17258;52.560;13.046;2022-09-12T03:57:40;1.20;;;1.10;;
30466;SDS011;17258;52.560;13.046;2022-09-12T04:07:40;0.80;;;0.80;;
30466;SDS011;17258;52.560;13.046;2022-09-12T04:17:41;0.93;;;0.93;;
30466;SDS011;17258;52.560;13.046;2022-09-12T04:27:42;1.13;;;1.07;;
30466;SDS011;17258;52.560;13.046;2022-09-12T04:37:42;1.23;;;1.13;;
30466;SDS011;17258;52.560;13.046;2022-09-12T04:47:43;1.60;;;1.43;;
30466;SDS011;17258;52.560;13.046;2022-09-12T04:57:45;2.17;;;1.98;;
30466;SDS011;17258;52.560;13.046;2022-09-12T05:07:46;1.70;;;1.60;;
30466;SDS011;17258;52.560;13.046;2022-09-12T05:17:46;1.43;;;1.33;;
30466;SDS011;17258;52.560;13.046;2022-09-12T05:27:50;1.83;;;1.65;;
30466;SDS011;17258;52.560;13.046;2022-09-12T05:37:52;5.07;;;2.35;;
30466;SDS011;17258;52.560;13.046;2022-09-12T05:47:52;3.70;;;2.10;;
30466;SDS011;17258;52.560;13.046;2022-09-12T05:57:53;1.47;;;1.37;;
30466;SDS011;17258;52.560;13.046;2022-09-12T06:07:54;1.73;;;1.63;;
30466;SDS011;17258;52.560;13.046;2022-09-12T06:17:54;1.77;;;1.25;;
30466;SDS011;17258;52.560;13.046;2022-09-12T06:27:55;1.93;;;1.73;;
30466;SDS011;17258;52.560;13.046;2022-09-12T06:37:57;1.85;;;1.75;;
30466;SDS011;17258;52.560;13.046;2022-09-12T06:47:57;2.53;;;2.33;;
30466;SDS011;17258;52.560;13.046;2022-09-12T06:57:58;1.97;;;1.87;;
30466;SDS011;17258;52.560;13.046;2022-09-12T07:07:59;2.40;;;2.27;;
30466;SDS011;17258;52.560;13.046;2022-09-12T07:17:59;2.67;;;2.50;;
30466;SDS011;17258;52.560;13.046;2022-09-12T07:28:00;2.50;;;2.30;;
30466;SDS011;17258;52.560;13.046;2022-09-12T07:38:01;2.67;;;2.47;;
30466;SDS011;17258;52.560;13.046;2022-09-12T07:48:02;2.70;;;2.50;;
30466;SDS011;17258;52.560;13.046;2022-09-12T07:58:02;1.67;;;1.58;;
30466;SDS011;17258;52.560;13.046;2022-09-12T08:08:03;1.33;;;1.33;;
30466;SDS011;17258;52.560;13.046;2022-09-12T08:18:04;3.13;;;1.85;;
30466;SDS011;17258;52.560;13.046;2022-09-12T08:28:05;1.47;;;1.40;;
30466;SDS011;17258;52.560;13.046;2022-09-12T08:38:05;1.47;;;0.90;;
30466;SDS011;17258;52.560;13.046;2022-09-12T08:48:07;1.90;;;0.73;;
30466;SDS011;17258;52.560;13.046;2022-09-12T08:58:18;0.88;;;0.70;;
30466;SDS011;17258;52.560;13.046;2022-09-12T09:18:31;0.82;;;0.60;;
30466;SDS011;17258;52.560;13.046;2022-09-12T09:28:35;0.73;;;0.47;;
30466;SDS011;17258;52.560;13.046;2022-09-12T09:38:49;1.73;;;0.65;;
30466;SDS011;17258;52.560;13.046;2022-09-12T09:49:05;0.68;;;0.68;;
30466;SDS011;17258;52.560;13.046;2022-09-12T09:59:18;0.88;;;0.68;;
30466;SDS011;17258;52.560;13.046;2022-09-12T10:09:32;0.57;;;0.57;;
30466;SDS011;17258;52.560;13.046;2022-09-12T10:19:36;0.80;;;0.80;;
30466;SDS011;17258;52.560;13.046;2022-09-12T10:29:49;0.73;;;0.73;;
30466;SDS011;17258;52.560;13.046;2022-09-12T10:39:56;0.60;;;0.60;;
30466;SDS011;17258;52.560;13.046;2022-09-12T11:00:20;4.07;;;0.95;;
30466;SDS011;17258;52.560;13.046;2022-09-12T11:10:35;0.88;;;0.88;;
30466;SDS011;17258;52.560;13.046;2022-09-12T11:21:03;0.93;;;0.80;;
30466;SDS011;17258;52.560;13.046;2022-09-12T11:31:24;0.70;;;0.70;;
30466;SDS011;17258;52.560;13.046;2022-09-12T11:41:57;0.40;;;0.40;;
30466;SDS011;17258;52.560;13.046;2022-09-12T11:52:03;0.80;;;0.80;;
30466;SDS011;17258;52.560;13.046;2022-09-12T12:02:23;0.70;;;0.70;;
30466;SDS011;17258;52.560;13.046;2022-09-12T12:12:26;0.80;;;0.80;;
30466;SDS011;17258;52.560;13.046;2022-09-12T12:22:28;0.60;;;0.60;;
30466;SDS011;17258;52.560;13.046;2022-09-12T12:32:29;0.68;;;0.65;;
30466;SDS011;17258;52.560;13.046;2022-09-12T12:52:47;0.68;;;0.60;;
30466;SDS011;17258;52.560;13.046;2022-09-12T13:02:59;0.60;;;0.60;;
30466;SDS011;17258;52.560;13.046;2022-09-12T13:13:04;15.65;;;14.75;;
30466;SDS011;17258;52.560;13.046;2022-09-12T13:23:18;16.38;;;15.38;;
30466;SDS011;17258;52.560;13.046;2022-09-12T13:43:47;16.23;;;15.32;;
30466;SDS011;17258;52.560;13.046;2022-09-12T13:53:48;16.52;;;15.52;;
30466;SDS011;17258;52.560;13.046;2022-09-12T14:14:17;16.40;;;15.50;;
30466;SDS011;17258;52.560;13.046;2022-09-12T14:24:34;16.98;;;15.90;;
30466;SDS011;17258;52.560;13.046;2022-09-12T14:34:35;16.90;;;15.90;;
30466;SDS011;17258;52.560;13.046;2022-09-12T14:44:35;16.77;;;15.77;;
30466;SDS011;17258;52.560;13.046;2022-09-12T14:54:37;17.02;;;16.02;;
30466;SDS011;17258;52.560;13.046;2022-09-12T15:04:39;16.73;;;15.73;;
30466;SDS011;17258;52.560;13.046;2022-09-12T15:14:45;16.75;;;15.75;;
30466;SDS011;17258;52.560;13.046;2022-09-12T15:24:46;16.98;;;15.98;;
30466;SDS011;17258;52.560;13.046;2022-09-12T15:34:46;17.10;;;16.00;;
30466;SDS011;17258;52.560;13.046;2022-09-12T15:44:47;14.10;;;13.30;;
30466;SDS011;17258;52.560;13.046;2022-09-12T15:54:48;10.60;;;10.00;;
30466;SDS011;17258;52.560;13.046;2022-09-12T16:04:49;7.20;;;6.90;;
30466;SDS011;17258;52.560;13.046;2022-09-12T16:14:53;6.40;;;6.00;;
30466;SDS011;17258;52.560;13.046;2022-09-12T16:24:54;3.30;;;3.20;;
30466;SDS011;17258;52.560;13.046;2022-09-12T16:34:54;1.30;;;1.30;;
30466;SDS011;17258;52.560;13.046;2022-09-12T16:44:55;1.73;;;0.93;;
30466;SDS011;17258;52.560;13.046;2022-09-12T16:54:56;0.83;;;0.83;;
30466;SDS011;17258;52.560;13.046;2022-09-12T17:04:56;1.27;;;1.00;;
30466;SDS011;17258;52.560;13.046;2022-09-12T17:14:57;1.08;;;1.08;;
30466;SDS011;17258;52.560;13.046;2022-09-12T17:24:58;2.13;;;1.60;;
30466;SDS011;17258;52.560;13.046;2022-09-12T17:34:58;2.17;;;2.03;;
30466;SDS011;17258;52.560;13.046;2022-09-12T17:44:59;2.70;;;2.50;;
30466;SDS011;17258;52.560;13.046;2022-09-12T17:54:59;1.97;;;1.87;;
30466;SDS011;17258;52.560;13.046;2022-09-12T18:05:00;2.35;;;2.17;;
30466;SDS011;17258;52.560;13.046;2022-09-12T18:15:04;2.47;;;2.28;;
30466;SDS011;17258;52.560;13.046;2022-09-12T18:25:05;2.10;;;2.00;;
30466;SDS011;17258;52.560;13.046;2022-09-12T18:35:07;2.75;;;2.28;;
30466;SDS011;17258;52.560;13.046;2022-09-12T18:45:08;2.97;;;2.78;;
30466;SDS011;17258;52.560;13.046;2022-09-12T18:55:09;2.63;;;2.42;;
30466;SDS011;17258;52.560;13.046;2022-09-12T19:05:09;2.37;;;2.17;;
30466;SDS011;17258;52.560;13.046;2022-09-12T19:15:11;1.48;;;1.38;;
30466;SDS011;17258;52.560;13.046;2022-09-12T19:25:12;3.07;;;2.00;;
30466;SDS011;17258;52.560;13.046;2022-09-12T19:35:13;2.27;;;2.00;;
30466;SDS011;17258;52.560;13.046;2022-09-12T19:45:13;2.53;;;1.90;;
30466;SDS011;17258;52.560;13.046;2022-09-12T19:55:14;2.47;;;2.20;;
30466;SDS011;17258;52.560;13.046;2022-09-12T20:05:15;1.73;;;1.63;;
30466;SDS011;17258;52.560;13.046;2022-09-12T20:15:15;2.13;;;1.93;;
30466;SDS011;17258;52.560;13.046;2022-09-12T20:25:16;2.35;;;2.13;;
30466;SDS011;17258;52.560;13.046;2022-09-12T20:35:18;1.88;;;1.77;;
30466;SDS011;17258;52.560;13.046;2022-09-12T20:45:19;1.50;;;1.40;;
30466;SDS011;17258;52.560;13.046;2022-09-12T20:55:20;1.60;;;1.50;;
30466;SDS011;17258;52.560;13.046;2022-09-12T21:05:20;2.80;;;1.70;;
30466;SDS011;17258;52.560;13.046;2022-09-12T21:15:21;4.53;;;2.77;;
30466;SDS011;17258;52.560;13.046;2022-09-12T21:25:22;2.63;;;1.97;;
30466;SDS011;17258;52.560;13.046;2022-09-12T21:35:23;4.47;;;2.28;;
30466;SDS011;17258;52.560;13.046;2022-09-12T21:45:23;3.00;;;2.30;;
30466;SDS011;17258;52.560;13.046;2022-09-12T21:55:24;2.23;;;2.03;;
30466;SDS011;17258;52.560;13.046;2022-09-12T22:05:26;2.65;;;2.33;;
30466;SDS011;17258;52.560;13.046;2022-09-12T22:15:28;3.33;;;1.90;;
30466;SDS011;17258;52.560;13.046;2022-09-12T22:25:29;2.00;;;1.73;;
30466;SDS011;17258;52.560;13.046;2022-09-12T22:35:30;2.35;;;2.15;;
30466;SDS011;17258;52.560;13.046;2022-09-12T22:45:30;1.63;;;1.53;;
30466;SDS011;17258;52.560;13.046;2022-09-12T22:55:31;2.07;;;1.80;;
30466;SDS011;17258;52.560;13.046;2022-09-12T23:05:32;5.27;;;2.00;;
30466;SDS011;17258;52.560;13.046;2022-09-12T23:15:32;1.97;;;1.87;;
30466;SDS011;17258;52.560;13.046;2022-09-12T23:25:33;1.97;;;1.60;;
30466;SDS011;17258;52.560;13.046;2022-09-12T23:35:34;1.40;;;1.20;;
30466;SDS011;17258;52.560;13.046;2022-09-12T23:45:35;1.67;;;1.50;;
30466;SDS011;17258;52.560;13.046;2022-09-12T23:55:36;1.50;;;1.40;;
